sensor_id;sensor_type;location;lat;lon;timestamp;temperature;humidity
15121;DHT22;7661;48.904;9.414;2023-05-16T00:01:00;11.50;99.90
15121;DHT22;7661;48.904;9.414;2023-05-16T00:03:26;11.50;99.90
15121;DHT22;7661;48.904;9.414;2023-05-16T00:05:55;11.40;99.90
15121;DHT22;7661;48.904;9.414;2023-05-16T00:08:24;11.40;99.90
15121;DHT22;7661;48.904;9.414;2023-05-16T00:10:51;11.40;99.90
15121;DHT22;7661;48.904;9.414;2023-05-16T00:13:18;11.40;99.90
15121;DHT22;7661;48.904;9.414;2023-05-16T00:15:46;11.40;99.90
15121;DHT22;7661;48.904;9.414;2023-05-16T00:18:14;11.40;99.90
15121;DHT22;7661;48.904;9.414;2023-05-16T00:20:41;11.40;99.90
15121;DHT22;7661;48.904;9.414;2023-05-16T00:23:08;11.40;99.90
15121;DHT22;7661;48.904;9.414;2023-05-16T00:25:36;11.40;99.90
15121;DHT22;7661;48.904;9.414;2023-05-16T00:28:04;11.40;99.90
15121;DHT22;7661;48.904;9.414;2023-05-16T00:30:30;11.40;99.90
15121;DHT22;7661;48.904;9.414;2023-05-16T00:32:57;11.40;99.90
15121;DHT22;7661;48.904;9.414;2023-05-16T00:35:25;11.30;99.90
15121;DHT22;7661;48.904;9.414;2023-05-16T00:37:52;11.20;99.90
15121;DHT22;7661;48.904;9.414;2023-05-16T00:40:19;11.20;99.90
15121;DHT22;7661;48.904;9.414;2023-05-16T00:42:47;11.20;99.90
15121;DHT22;7661;48.904;9.414;2023-05-16T00:45:14;11.10;99.90
15121;DHT22;7661;48.904;9.414;2023-05-16T00:47:41;11.10;99.90
15121;DHT22;7661;48.904;9.414;2023-05-16T00:50:09;11.10;99.90
15121;DHT22;7661;48.904;9.414;2023-05-16T00:52:36;11.10;99.90
15121;DHT22;7661;48.904;9.414;2023-05-16T00:55:04;11.10;99.90
15121;DHT22;7661;48.904;9.414;2023-05-16T00:57:31;11.00;99.90
15121;DHT22;7661;48.904;9.414;2023-05-16T01:00:00;11.10;99.90
15121;DHT22;7661;48.904;9.414;2023-05-16T01:02:27;11.10;99.90
15121;DHT22;7661;48.904;9.414;2023-05-16T01:04:55;11.10;99.90
15121;DHT22;7661;48.904;9.414;2023-05-16T01:07:22;11.00;99.90
15121;DHT22;7661;48.904;9.414;2023-05-16T01:09:49;11.00;99.90
15121;DHT22;7661;48.904;9.414;2023-05-16T01:12:22;11.00;99.90
15121;DHT22;7661;48.904;9.414;2023-05-16T01:14:57;11.00;99.90
15121;DHT22;7661;48.904;9.414;2023-05-16T01:17:35;11.00;99.90
15121;DHT22;7661;48.904;9.414;2023-05-16T01:20:08;11.00;99.90
15121;DHT22;7661;48.904;9.414;2023-05-16T01:23:03;11.00;99.90
15121;DHT22;7661;48.904;9.414;2023-05-16T01:25:50;10.90;99.90
15121;DHT22;7661;48.904;9.414;2023-05-16T01:28:22;10.90;99.90
15121;DHT22;7661;48.904;9.414;2023-05-16T01:30:50;10.80;99.90
15121;DHT22;7661;48.904;9.414;2023-05-16T01:33:17;10.80;99.90
15121;DHT22;7661;48.904;9.414;2023-05-16T01:35:52;10.70;99.90
15121;DHT22;7661;48.904;9.414;2023-05-16T01:38:24;10.70;99.90
15121;DHT22;7661;48.904;9.414;2023-05-16T01:40:54;10.60;99.90
15121;DHT22;7661;48.904;9.414;2023-05-16T01:43:32;10.60;99.90
15121;DHT22;7661;48.904;9.414;2023-05-16T01:46:03;10.60;99.90
15121;DHT22;7661;48.904;9.414;2023-05-16T01:48:37;10.60;99.90
15121;DHT22;7661;48.904;9.414;2023-05-16T01:51:06;10.60;99.90
15121;DHT22;7661;48.904;9.414;2023-05-16T01:53:37;10.60;99.90
15121;DHT22;7661;48.904;9.414;2023-05-16T01:56:08;10.50;99.90
15121;DHT22;7661;48.904;9.414;2023-05-16T01:58:38;10.50;99.90
15121;DHT22;7661;48.904;9.414;2023-05-16T02:01:06;10.40;99.90
15121;DHT22;7661;48.904;9.414;2023-05-16T02:03:33;10.40;99.90
15121;DHT22;7661;48.904;9.414;2023-05-16T02:06:00;10.30;99.90
15121;DHT22;7661;48.904;9.414;2023-05-16T02:08:28;10.30;99.90
15121;DHT22;7661;48.904;9.414;2023-05-16T02:10:54;10.30;99.90
15121;DHT22;7661;48.904;9.414;2023-05-16T02:13:21;10.30;99.90
15121;DHT22;7661;48.904;9.414;2023-05-16T02:15:50;10.30;99.90
15121;DHT22;7661;48.904;9.414;2023-05-16T02:18:17;10.30;99.90
15121;DHT22;7661;48.904;9.414;2023-05-16T02:20:44;10.30;99.90
15121;DHT22;7661;48.904;9.414;2023-05-16T02:23:12;10.20;99.90
15121;DHT22;7661;48.904;9.414;2023-05-16T02:25:39;10.20;99.90
15121;DHT22;7661;48.904;9.414;2023-05-16T02:28:06;10.20;99.90
15121;DHT22;7661;48.904;9.414;2023-05-16T02:30:33;10.20;99.90
15121;DHT22;7661;48.904;9.414;2023-05-16T02:33:01;10.20;99.90
15121;DHT22;7661;48.904;9.414;2023-05-16T02:35:28;10.10;99.90
15121;DHT22;7661;48.904;9.414;2023-05-16T02:37:55;10.10;99.90
15121;DHT22;7661;48.904;9.414;2023-05-16T02:40:22;10.10;99.90
15121;DHT22;7661;48.904;9.414;2023-05-16T02:42:49;10.10;99.90
15121;DHT22;7661;48.904;9.414;2023-05-16T02:45:16;10.10;99.90
15121;DHT22;7661;48.904;9.414;2023-05-16T02:47:43;10.20;99.90
15121;DHT22;7661;48.904;9.414;2023-05-16T02:50:12;10.20;99.90
15121;DHT22;7661;48.904;9.414;2023-05-16T02:52:39;10.20;99.90
15121;DHT22;7661;48.904;9.414;2023-05-16T02:55:06;10.20;99.90
15121;DHT22;7661;48.904;9.414;2023-05-16T02:57:33;10.20;99.90
15121;DHT22;7661;48.904;9.414;2023-05-16T03:00:00;10.20;99.90
15121;DHT22;7661;48.904;9.414;2023-05-16T03:02:30;10.20;99.90
15121;DHT22;7661;48.904;9.414;2023-05-16T03:04:57;10.20;99.90
15121;DHT22;7661;48.904;9.414;2023-05-16T03:07:25;10.20;99.90
15121;DHT22;7661;48.904;9.414;2023-05-16T03:09:52;10.20;99.90
15121;DHT22;7661;48.904;9.414;2023-05-16T03:12:19;10.20;99.90
15121;DHT22;7661;48.904;9.414;2023-05-16T03:14:46;10.20;99.90
15121;DHT22;7661;48.904;9.414;2023-05-16T03:17:13;10.20;99.90
15121;DHT22;7661;48.904;9.414;2023-05-16T03:19:40;10.30;99.90
15121;DHT22;7661;48.904;9.414;2023-05-16T03:22:07;10.30;99.90
15121;DHT22;7661;48.904;9.414;2023-05-16T03:24:35;10.20;99.90
15121;DHT22;7661;48.904;9.414;2023-05-16T03:27:03;10.30;99.90
15121;DHT22;7661;48.904;9.414;2023-05-16T03:29:30;10.20;99.90
15121;DHT22;7661;48.904;9.414;2023-05-16T03:31:57;10.20;99.90
15121;DHT22;7661;48.904;9.414;2023-05-16T03:34:24;10.20;99.90
15121;DHT22;7661;48.904;9.414;2023-05-16T03:36:51;10.30;99.90
15121;DHT22;7661;48.904;9.414;2023-05-16T03:39:18;10.30;99.90
15121;DHT22;7661;48.904;9.414;2023-05-16T03:41:46;10.40;99.90
15121;DHT22;7661;48.904;9.414;2023-05-16T03:44:13;10.40;99.90
15121;DHT22;7661;48.904;9.414;2023-05-16T03:46:40;10.40;99.90
15121;DHT22;7661;48.904;9.414;2023-05-16T03:49:07;10.40;99.90
15121;DHT22;7661;48.904;9.414;2023-05-16T03:51:34;10.50;99.90
15121;DHT22;7661;48.904;9.414;2023-05-16T03:54:01;10.50;99.90
15121;DHT22;7661;48.904;9.414;2023-05-16T03:56:28;10.50;99.90
15121;DHT22;7661;48.904;9.414;2023-05-16T03:58:56;10.60;99.90
15121;DHT22;7661;48.904;9.414;2023-05-16T04:01:23;10.50;99.90
15121;DHT22;7661;48.904;9.414;2023-05-16T04:03:50;10.60;99.90
15121;DHT22;7661;48.904;9.414;2023-05-16T04:06:17;10.60;99.90
15121;DHT22;7661;48.904;9.414;2023-05-16T04:08:44;10.60;99.90
15121;DHT22;7661;48.904;9.414;2023-05-16T04:11:11;10.60;99.90
15121;DHT22;7661;48.904;9.414;2023-05-16T04:13:38;10.60;99.90
15121;DHT22;7661;48.904;9.414;2023-05-16T04:16:07;10.60;99.90
15121;DHT22;7661;48.904;9.414;2023-05-16T04:18:34;10.60;99.90
15121;DHT22;7661;48.904;9.414;2023-05-16T04:21:01;10.60;99.90
15121;DHT22;7661;48.904;9.414;2023-05-16T04:23:28;10.60;99.90
15121;DHT22;7661;48.904;9.414;2023-05-16T04:25:55;10.70;99.90
15121;DHT22;7661;48.904;9.414;2023-05-16T04:28:23;10.70;99.90
15121;DHT22;7661;48.904;9.414;2023-05-16T04:30:50;10.80;99.90
15121;DHT22;7661;48.904;9.414;2023-05-16T04:33:19;10.80;99.90
15121;DHT22;7661;48.904;9.414;2023-05-16T04:35:46;10.80;99.90
15121;DHT22;7661;48.904;9.414;2023-05-16T04:38:14;10.80;99.90
15121;DHT22;7661;48.904;9.414;2023-05-16T04:40:41;10.80;99.90
15121;DHT22;7661;48.904;9.414;2023-05-16T04:43:08;10.80;99.90
15121;DHT22;7661;48.904;9.414;2023-05-16T04:45:35;10.80;99.90
15121;DHT22;7661;48.904;9.414;2023-05-16T04:48:02;10.90;99.90
15121;DHT22;7661;48.904;9.414;2023-05-16T04:50:30;10.90;99.90
15121;DHT22;7661;48.904;9.414;2023-05-16T04:52:57;10.90;99.90
15121;DHT22;7661;48.904;9.414;2023-05-16T04:55:24;10.90;99.90
15121;DHT22;7661;48.904;9.414;2023-05-16T04:57:51;10.90;99.90
15121;DHT22;7661;48.904;9.414;2023-05-16T05:00:18;11.00;99.90
15121;DHT22;7661;48.904;9.414;2023-05-16T05:02:45;11.00;99.90
15121;DHT22;7661;48.904;9.414;2023-05-16T05:05:12;11.10;99.90
15121;DHT22;7661;48.904;9.414;2023-05-16T05:07:40;11.20;99.90
15121;DHT22;7661;48.904;9.414;2023-05-16T05:10:08;11.30;99.90
15121;DHT22;7661;48.904;9.414;2023-05-16T05:12:36;11.30;99.90
15121;DHT22;7661;48.904;9.414;2023-05-16T05:15:03;11.40;99.90
15121;DHT22;7661;48.904;9.414;2023-05-16T05:17:31;11.40;99.90
15121;DHT22;7661;48.904;9.414;2023-05-16T05:19:58;11.40;99.90
15121;DHT22;7661;48.904;9.414;2023-05-16T05:22:25;11.50;99.90
15121;DHT22;7661;48.904;9.414;2023-05-16T05:24:53;11.50;99.90
15121;DHT22;7661;48.904;9.414;2023-05-16T05:27:20;11.50;99.90
15121;DHT22;7661;48.904;9.414;2023-05-16T05:29:47;11.50;99.90
15121;DHT22;7661;48.904;9.414;2023-05-16T05:32:14;11.50;99.90
15121;DHT22;7661;48.904;9.414;2023-05-16T05:34:41;11.60;99.90
15121;DHT22;7661;48.904;9.414;2023-05-16T05:37:08;11.60;99.90
15121;DHT22;7661;48.904;9.414;2023-05-16T05:39:34;11.60;99.90
15121;DHT22;7661;48.904;9.414;2023-05-16T05:42:03;11.60;99.90
15121;DHT22;7661;48.904;9.414;2023-05-16T05:44:30;11.70;99.90
15121;DHT22;7661;48.904;9.414;2023-05-16T05:46:58;11.60;99.90
15121;DHT22;7661;48.904;9.414;2023-05-16T05:52:36;11.70;99.90
15121;DHT22;7661;48.904;9.414;2023-05-16T05:55:04;11.70;99.90
15121;DHT22;7661;48.904;9.414;2023-05-16T05:57:33;11.80;99.90
15121;DHT22;7661;48.904;9.414;2023-05-16T06:00:00;11.80;99.90
15121;DHT22;7661;48.904;9.414;2023-05-16T06:02:27;11.90;99.90
15121;DHT22;7661;48.904;9.414;2023-05-16T06:04:54;12.00;99.90
15121;DHT22;7661;48.904;9.414;2023-05-16T06:07:21;12.00;99.90
15121;DHT22;7661;48.904;9.414;2023-05-16T06:09:49;12.20;99.90
15121;DHT22;7661;48.904;9.414;2023-05-16T06:12:16;12.30;99.90
15121;DHT22;7661;48.904;9.414;2023-05-16T06:14:45;12.40;99.90
15121;DHT22;7661;48.904;9.414;2023-05-16T06:17:12;12.60;99.90
15121;DHT22;7661;48.904;9.414;2023-05-16T06:19:39;12.70;99.90
15121;DHT22;7661;48.904;9.414;2023-05-16T06:22:05;12.80;99.90
15121;DHT22;7661;48.904;9.414;2023-05-16T06:24:32;12.90;99.90
15121;DHT22;7661;48.904;9.414;2023-05-16T06:26:59;13.00;99.90
15121;DHT22;7661;48.904;9.414;2023-05-16T06:29:26;12.90;99.90
15121;DHT22;7661;48.904;9.414;2023-05-16T06:31:55;12.90;99.90
15121;DHT22;7661;48.904;9.414;2023-05-16T06:34:22;12.90;99.90
15121;DHT22;7661;48.904;9.414;2023-05-16T06:36:52;13.00;99.90
15121;DHT22;7661;48.904;9.414;2023-05-16T06:39:19;13.10;99.90
15121;DHT22;7661;48.904;9.414;2023-05-16T06:41:46;13.20;99.90
15121;DHT22;7661;48.904;9.414;2023-05-16T06:44:13;13.20;99.90
15121;DHT22;7661;48.904;9.414;2023-05-16T06:46:40;13.20;99.90
15121;DHT22;7661;48.904;9.414;2023-05-16T06:49:09;13.30;99.90
15121;DHT22;7661;48.904;9.414;2023-05-16T06:51:36;13.30;99.90
15121;DHT22;7661;48.904;9.414;2023-05-16T06:54:03;13.30;99.90
15121;DHT22;7661;48.904;9.414;2023-05-16T06:56:30;13.30;99.90
15121;DHT22;7661;48.904;9.414;2023-05-16T06:58:57;13.20;99.90
15121;DHT22;7661;48.904;9.414;2023-05-16T07:01:26;13.20;99.90
15121;DHT22;7661;48.904;9.414;2023-05-16T07:03:53;13.20;99.90
15121;DHT22;7661;48.904;9.414;2023-05-16T07:06:21;13.10;99.90
15121;DHT22;7661;48.904;9.414;2023-05-16T07:08:48;13.10;99.90
15121;DHT22;7661;48.904;9.414;2023-05-16T07:11:15;13.10;99.90
15121;DHT22;7661;48.904;9.414;2023-05-16T07:13:42;13.10;99.90
15121;DHT22;7661;48.904;9.414;2023-05-16T07:16:09;13.10;99.90
15121;DHT22;7661;48.904;9.414;2023-05-16T07:18:36;13.10;99.90
15121;DHT22;7661;48.904;9.414;2023-05-16T07:21:03;13.20;99.90
15121;DHT22;7661;48.904;9.414;2023-05-16T07:23:31;13.20;99.90
15121;DHT22;7661;48.904;9.414;2023-05-16T07:25:58;13.30;99.90
15121;DHT22;7661;48.904;9.414;2023-05-16T07:28:25;13.30;99.90
15121;DHT22;7661;48.904;9.414;2023-05-16T07:30:52;13.40;99.90
15121;DHT22;7661;48.904;9.414;2023-05-16T07:33:19;13.40;99.90
15121;DHT22;7661;48.904;9.414;2023-05-16T07:35:46;13.50;99.90
15121;DHT22;7661;48.904;9.414;2023-05-16T07:38:14;13.50;99.90
15121;DHT22;7661;48.904;9.414;2023-05-16T07:40:42;13.60;99.90
15121;DHT22;7661;48.904;9.414;2023-05-16T07:43:09;13.80;99.90
15121;DHT22;7661;48.904;9.414;2023-05-16T07:45:36;13.90;99.90
15121;DHT22;7661;48.904;9.414;2023-05-16T07:48:03;14.00;99.90
15121;DHT22;7661;48.904;9.414;2023-05-16T07:50:30;14.00;99.90
15121;DHT22;7661;48.904;9.414;2023-05-16T07:52:57;14.00;99.90
15121;DHT22;7661;48.904;9.414;2023-05-16T07:55:24;14.00;99.90
15121;DHT22;7661;48.904;9.414;2023-05-16T07:57:53;14.00;99.90
15121;DHT22;7661;48.904;9.414;2023-05-16T08:00:20;13.90;99.90
15121;DHT22;7661;48.904;9.414;2023-05-16T08:02:47;13.90;99.90
15121;DHT22;7661;48.904;9.414;2023-05-16T08:05:15;13.80;99.90
15121;DHT22;7661;48.904;9.414;2023-05-16T08:07:42;13.80;99.90
15121;DHT22;7661;48.904;9.414;2023-05-16T08:10:09;13.80;99.90
15121;DHT22;7661;48.904;9.414;2023-05-16T08:12:37;13.80;99.90
15121;DHT22;7661;48.904;9.414;2023-05-16T08:15:07;13.80;99.90
15121;DHT22;7661;48.904;9.414;2023-05-16T08:17:34;13.80;99.90
15121;DHT22;7661;48.904;9.414;2023-05-16T08:20:01;13.80;99.90
15121;DHT22;7661;48.904;9.414;2023-05-16T08:22:28;13.70;99.90
15121;DHT22;7661;48.904;9.414;2023-05-16T08:24:55;13.60;99.90
15121;DHT22;7661;48.904;9.414;2023-05-16T08:27:25;13.60;99.90
15121;DHT22;7661;48.904;9.414;2023-05-16T08:29:52;13.50;99.90
15121;DHT22;7661;48.904;9.414;2023-05-16T08:32:21;13.50;99.90
15121;DHT22;7661;48.904;9.414;2023-05-16T08:34:48;13.50;99.90
15121;DHT22;7661;48.904;9.414;2023-05-16T08:37:15;13.50;99.90
15121;DHT22;7661;48.904;9.414;2023-05-16T08:39:42;13.50;99.90
15121;DHT22;7661;48.904;9.414;2023-05-16T08:42:09;13.50;99.90
15121;DHT22;7661;48.904;9.414;2023-05-16T08:44:36;13.50;99.90
15121;DHT22;7661;48.904;9.414;2023-05-16T08:47:09;13.60;99.90
15121;DHT22;7661;48.904;9.414;2023-05-16T08:49:39;13.60;99.90
15121;DHT22;7661;48.904;9.414;2023-05-16T08:52:08;13.60;99.90
15121;DHT22;7661;48.904;9.414;2023-05-16T08:54:36;13.60;99.90
15121;DHT22;7661;48.904;9.414;2023-05-16T08:57:04;13.60;99.90
15121;DHT22;7661;48.904;9.414;2023-05-16T08:59:32;13.60;99.90
15121;DHT22;7661;48.904;9.414;2023-05-16T09:01:59;13.60;99.90
15121;DHT22;7661;48.904;9.414;2023-05-16T09:04:26;13.50;99.90
15121;DHT22;7661;48.904;9.414;2023-05-16T09:06:55;13.60;99.90
15121;DHT22;7661;48.904;9.414;2023-05-16T09:09:22;13.60;99.90
15121;DHT22;7661;48.904;9.414;2023-05-16T09:11:49;13.60;99.90
15121;DHT22;7661;48.904;9.414;2023-05-16T09:14:16;13.70;99.90
15121;DHT22;7661;48.904;9.414;2023-05-16T09:16:44;13.70;99.90
15121;DHT22;7661;48.904;9.414;2023-05-16T09:19:12;13.70;99.90
15121;DHT22;7661;48.904;9.414;2023-05-16T09:21:39;13.60;99.90
15121;DHT22;7661;48.904;9.414;2023-05-16T09:24:09;13.60;99.90
15121;DHT22;7661;48.904;9.414;2023-05-16T09:26:37;13.60;99.90
15121;DHT22;7661;48.904;9.414;2023-05-16T09:29:09;13.60;99.90
15121;DHT22;7661;48.904;9.414;2023-05-16T09:31:37;13.70;99.90
15121;DHT22;7661;48.904;9.414;2023-05-16T09:34:06;13.80;99.90
15121;DHT22;7661;48.904;9.414;2023-05-16T09:36:33;13.90;99.90
15121;DHT22;7661;48.904;9.414;2023-05-16T09:39:01;14.10;99.90
15121;DHT22;7661;48.904;9.414;2023-05-16T09:41:32;14.30;99.90
15121;DHT22;7661;48.904;9.414;2023-05-16T09:43:59;14.40;99.90
15121;DHT22;7661;48.904;9.414;2023-05-16T09:46:29;14.50;99.90
15121;DHT22;7661;48.904;9.414;2023-05-16T09:48:56;14.50;99.90
15121;DHT22;7661;48.904;9.414;2023-05-16T09:51:23;14.40;99.90
15121;DHT22;7661;48.904;9.414;2023-05-16T09:53:50;14.40;99.90
15121;DHT22;7661;48.904;9.414;2023-05-16T09:56:17;14.30;99.90
15121;DHT22;7661;48.904;9.414;2023-05-16T09:58:45;14.10;99.90
15121;DHT22;7661;48.904;9.414;2023-05-16T10:01:12;14.10;99.90
15121;DHT22;7661;48.904;9.414;2023-05-16T10:03:40;14.00;99.90
15121;DHT22;7661;48.904;9.414;2023-05-16T10:06:08;13.90;99.90
15121;DHT22;7661;48.904;9.414;2023-05-16T10:08:36;13.90;99.90
15121;DHT22;7661;48.904;9.414;2023-05-16T10:11:04;13.90;99.90
15121;DHT22;7661;48.904;9.414;2023-05-16T10:13:33;13.90;99.90
15121;DHT22;7661;48.904;9.414;2023-05-16T10:16:05;14.00;99.90
15121;DHT22;7661;48.904;9.414;2023-05-16T10:18:34;14.00;99.90
15121;DHT22;7661;48.904;9.414;2023-05-16T10:21:04;14.10;99.90
15121;DHT22;7661;48.904;9.414;2023-05-16T10:23:32;14.10;99.90
15121;DHT22;7661;48.904;9.414;2023-05-16T10:26:02;14.10;99.90
15121;DHT22;7661;48.904;9.414;2023-05-16T10:28:30;14.10;99.90
15121;DHT22;7661;48.904;9.414;2023-05-16T10:30:58;14.10;99.90
15121;DHT22;7661;48.904;9.414;2023-05-16T10:33:28;14.20;99.90
15121;DHT22;7661;48.904;9.414;2023-05-16T10:35:55;14.20;99.90
15121;DHT22;7661;48.904;9.414;2023-05-16T10:38:22;14.40;99.90
15121;DHT22;7661;48.904;9.414;2023-05-16T10:40:50;14.50;99.90
15121;DHT22;7661;48.904;9.414;2023-05-16T10:43:24;14.60;99.90
15121;DHT22;7661;48.904;9.414;2023-05-16T10:45:55;14.70;99.90
15121;DHT22;7661;48.904;9.414;2023-05-16T10:48:31;14.70;99.90
15121;DHT22;7661;48.904;9.414;2023-05-16T10:50:58;14.90;99.90
15121;DHT22;7661;48.904;9.414;2023-05-16T10:53:32;15.10;99.90
15121;DHT22;7661;48.904;9.414;2023-05-16T10:56:09;15.10;99.90
15121;DHT22;7661;48.904;9.414;2023-05-16T10:58:45;15.10;99.90
15121;DHT22;7661;48.904;9.414;2023-05-16T11:01:17;15.20;99.90
15121;DHT22;7661;48.904;9.414;2023-05-16T11:04:08;15.20;99.90
15121;DHT22;7661;48.904;9.414;2023-05-16T11:06:44;15.30;99.90
15121;DHT22;7661;48.904;9.414;2023-05-16T11:09:20;15.30;99.90
15121;DHT22;7661;48.904;9.414;2023-05-16T11:11:54;15.30;99.90
15121;DHT22;7661;48.904;9.414;2023-05-16T11:14:22;15.30;99.90
15121;DHT22;7661;48.904;9.414;2023-05-16T11:16:50;15.30;99.90
15121;DHT22;7661;48.904;9.414;2023-05-16T11:19:42;15.40;99.90
15121;DHT22;7661;48.904;9.414;2023-05-16T11:22:21;15.40;99.90
15121;DHT22;7661;48.904;9.414;2023-05-16T11:24:50;15.40;99.90
15121;DHT22;7661;48.904;9.414;2023-05-16T11:27:22;15.40;99.90
15121;DHT22;7661;48.904;9.414;2023-05-16T11:29:49;15.30;99.90
15121;DHT22;7661;48.904;9.414;2023-05-16T11:32:19;15.40;99.90
15121;DHT22;7661;48.904;9.414;2023-05-16T11:34:49;15.30;99.90
15121;DHT22;7661;48.904;9.414;2023-05-16T11:37:16;15.30;99.90
15121;DHT22;7661;48.904;9.414;2023-05-16T11:39:44;15.20;99.90
15121;DHT22;7661;48.904;9.414;2023-05-16T11:42:11;15.10;99.90
15121;DHT22;7661;48.904;9.414;2023-05-16T11:44:39;15.00;99.90
15121;DHT22;7661;48.904;9.414;2023-05-16T11:47:06;14.80;99.90
15121;DHT22;7661;48.904;9.414;2023-05-16T11:49:34;14.60;99.90
15121;DHT22;7661;48.904;9.414;2023-05-16T11:52:03;14.50;99.90
15121;DHT22;7661;48.904;9.414;2023-05-16T11:54:31;14.40;99.90
15121;DHT22;7661;48.904;9.414;2023-05-16T11:56:59;14.30;99.90
15121;DHT22;7661;48.904;9.414;2023-05-16T11:59:26;14.20;99.90
15121;DHT22;7661;48.904;9.414;2023-05-16T12:01:53;14.10;99.90
15121;DHT22;7661;48.904;9.414;2023-05-16T12:04:20;14.10;99.90
15121;DHT22;7661;48.904;9.414;2023-05-16T12:06:58;14.00;99.90
15121;DHT22;7661;48.904;9.414;2023-05-16T12:09:27;14.00;99.90
15121;DHT22;7661;48.904;9.414;2023-05-16T12:11:54;14.00;99.90
15121;DHT22;7661;48.904;9.414;2023-05-16T12:14:21;14.10;99.90
15121;DHT22;7661;48.904;9.414;2023-05-16T12:16:51;14.20;99.90
15121;DHT22;7661;48.904;9.414;2023-05-16T12:19:18;14.40;99.90
15121;DHT22;7661;48.904;9.414;2023-05-16T12:21:46;14.60;99.90
15121;DHT22;7661;48.904;9.414;2023-05-16T12:24:13;14.70;99.90
15121;DHT22;7661;48.904;9.414;2023-05-16T12:26:41;14.80;99.90
15121;DHT22;7661;48.904;9.414;2023-05-16T12:29:09;14.80;99.90
15121;DHT22;7661;48.904;9.414;2023-05-16T12:31:38;14.90;99.90
15121;DHT22;7661;48.904;9.414;2023-05-16T12:34:15;15.00;99.90
15121;DHT22;7661;48.904;9.414;2023-05-16T12:36:42;15.10;99.90
15121;DHT22;7661;48.904;9.414;2023-05-16T12:39:11;15.20;99.90
15121;DHT22;7661;48.904;9.414;2023-05-16T12:41:41;15.30;99.90
15121;DHT22;7661;48.904;9.414;2023-05-16T12:44:12;15.50;99.90
15121;DHT22;7661;48.904;9.414;2023-05-16T12:46:42;15.50;99.90
15121;DHT22;7661;48.904;9.414;2023-05-16T12:49:09;15.60;99.90
15121;DHT22;7661;48.904;9.414;2023-05-16T12:51:36;15.80;99.90
15121;DHT22;7661;48.904;9.414;2023-05-16T12:54:08;15.80;99.90
15121;DHT22;7661;48.904;9.414;2023-05-16T12:56:36;15.80;99.90
15121;DHT22;7661;48.904;9.414;2023-05-16T12:59:04;15.90;99.90
15121;DHT22;7661;48.904;9.414;2023-05-16T13:01:31;16.00;99.90
15121;DHT22;7661;48.904;9.414;2023-05-16T13:03:59;16.10;99.90
15121;DHT22;7661;48.904;9.414;2023-05-16T13:06:27;16.20;99.90
15121;DHT22;7661;48.904;9.414;2023-05-16T13:08:54;16.30;99.90
15121;DHT22;7661;48.904;9.414;2023-05-16T13:11:22;16.30;99.90
15121;DHT22;7661;48.904;9.414;2023-05-16T13:13:49;16.30;99.90
15121;DHT22;7661;48.904;9.414;2023-05-16T13:16:17;16.20;99.90
15121;DHT22;7661;48.904;9.414;2023-05-16T13:18:44;16.10;99.90
15121;DHT22;7661;48.904;9.414;2023-05-16T13:21:11;16.00;99.90
15121;DHT22;7661;48.904;9.414;2023-05-16T13:23:39;15.90;99.90
15121;DHT22;7661;48.904;9.414;2023-05-16T13:26:07;15.60;99.90
15121;DHT22;7661;48.904;9.414;2023-05-16T13:28:34;15.40;99.90
15121;DHT22;7661;48.904;9.414;2023-05-16T13:31:03;15.30;99.90
15121;DHT22;7661;48.904;9.414;2023-05-16T13:33:31;15.10;99.90
15121;DHT22;7661;48.904;9.414;2023-05-16T13:36:00;14.90;99.90
15121;DHT22;7661;48.904;9.414;2023-05-16T13:38:28;14.80;99.90
15121;DHT22;7661;48.904;9.414;2023-05-16T13:40:55;14.80;99.90
15121;DHT22;7661;48.904;9.414;2023-05-16T13:43:22;14.90;99.90
15121;DHT22;7661;48.904;9.414;2023-05-16T13:45:49;15.00;99.90
15121;DHT22;7661;48.904;9.414;2023-05-16T13:48:17;15.00;99.90
15121;DHT22;7661;48.904;9.414;2023-05-16T13:50:45;14.90;99.90
15121;DHT22;7661;48.904;9.414;2023-05-16T13:53:12;14.80;99.90
15121;DHT22;7661;48.904;9.414;2023-05-16T13:55:39;14.80;99.90
15121;DHT22;7661;48.904;9.414;2023-05-16T13:58:10;14.70;99.90
15121;DHT22;7661;48.904;9.414;2023-05-16T14:00:39;14.70;99.90
15121;DHT22;7661;48.904;9.414;2023-05-16T14:03:06;14.70;99.90
15121;DHT22;7661;48.904;9.414;2023-05-16T14:05:33;14.70;99.90
15121;DHT22;7661;48.904;9.414;2023-05-16T14:08:01;14.60;99.90
15121;DHT22;7661;48.904;9.414;2023-05-16T14:10:29;14.60;99.90
15121;DHT22;7661;48.904;9.414;2023-05-16T14:12:56;14.60;99.90
15121;DHT22;7661;48.904;9.414;2023-05-16T14:15:23;14.60;99.90
15121;DHT22;7661;48.904;9.414;2023-05-16T14:17:50;14.50;99.90
15121;DHT22;7661;48.904;9.414;2023-05-16T14:20:16;14.50;99.90
15121;DHT22;7661;48.904;9.414;2023-05-16T14:22:43;14.60;99.90
15121;DHT22;7661;48.904;9.414;2023-05-16T14:25:12;14.60;99.90
15121;DHT22;7661;48.904;9.414;2023-05-16T14:27:39;14.60;99.90
15121;DHT22;7661;48.904;9.414;2023-05-16T14:30:07;14.60;99.90
15121;DHT22;7661;48.904;9.414;2023-05-16T14:32:34;14.60;99.90
15121;DHT22;7661;48.904;9.414;2023-05-16T14:35:01;14.70;99.90
15121;DHT22;7661;48.904;9.414;2023-05-16T14:37:29;14.60;99.90
15121;DHT22;7661;48.904;9.414;2023-05-16T14:39:56;14.70;99.90
15121;DHT22;7661;48.904;9.414;2023-05-16T14:42:26;14.80;99.90
15121;DHT22;7661;48.904;9.414;2023-05-16T14:44:53;14.90;99.90
15121;DHT22;7661;48.904;9.414;2023-05-16T14:47:20;15.00;99.90
15121;DHT22;7661;48.904;9.414;2023-05-16T14:49:47;15.00;99.90
15121;DHT22;7661;48.904;9.414;2023-05-16T14:52:14;15.00;99.90
15121;DHT22;7661;48.904;9.414;2023-05-16T14:54:41;14.80;99.90
15121;DHT22;7661;48.904;9.414;2023-05-16T14:57:08;14.60;99.90
15121;DHT22;7661;48.904;9.414;2023-05-16T14:59:36;14.40;99.90
15121;DHT22;7661;48.904;9.414;2023-05-16T15:02:04;14.30;99.90
15121;DHT22;7661;48.904;9.414;2023-05-16T15:04:31;14.20;99.90
15121;DHT22;7661;48.904;9.414;2023-05-16T15:06:58;14.10;99.90
15121;DHT22;7661;48.904;9.414;2023-05-16T15:09:25;14.00;99.90
15121;DHT22;7661;48.904;9.414;2023-05-16T15:11:52;14.00;99.90
15121;DHT22;7661;48.904;9.414;2023-05-16T15:14:19;13.90;99.90
15121;DHT22;7661;48.904;9.414;2023-05-16T15:16:47;13.90;99.90
15121;DHT22;7661;48.904;9.414;2023-05-16T15:19:14;13.80;99.90
15121;DHT22;7661;48.904;9.414;2023-05-16T15:21:41;13.80;99.90
15121;DHT22;7661;48.904;9.414;2023-05-16T15:24:08;13.80;99.90
15121;DHT22;7661;48.904;9.414;2023-05-16T15:26:37;13.80;99.90
15121;DHT22;7661;48.904;9.414;2023-05-16T15:29:05;13.80;99.90
15121;DHT22;7661;48.904;9.414;2023-05-16T15:31:32;13.90;99.90
15121;DHT22;7661;48.904;9.414;2023-05-16T15:34:01;13.90;99.90
15121;DHT22;7661;48.904;9.414;2023-05-16T15:36:28;14.00;99.90
15121;DHT22;7661;48.904;9.414;2023-05-16T15:38:55;14.00;99.90
15121;DHT22;7661;48.904;9.414;2023-05-16T15:41:22;14.00;99.90
15121;DHT22;7661;48.904;9.414;2023-05-16T15:43:49;14.10;99.90
15121;DHT22;7661;48.904;9.414;2023-05-16T15:46:16;14.10;99.90
15121;DHT22;7661;48.904;9.414;2023-05-16T15:48:43;14.10;99.90
15121;DHT22;7661;48.904;9.414;2023-05-16T15:51:12;14.10;99.90
15121;DHT22;7661;48.904;9.414;2023-05-16T15:53:40;14.10;99.90